Time;durP1;ratioP1;P1;durP2;ratioP2;P2;SDS_P1;SDS_P2;PMS_P1;PMS_P2;Temp;Humidity;BMP_temperature;BMP_pressure;BME280_temperature;BME280_humidity;BME280_pressure;Samples;Min_cycle;Max_cycle;Signal;HPM_P1;HPM_P2
2023/05/10 02:02:22;;;;;;;6.05;2.60;;;;;;;;;;4378006;28;20487;-75
2023/05/10 02:04:50;;;;;;;4.72;3.40;;;;;;;;;;4314088;33;20571;-73
2023/05/10 02:07:16;;;;;;;4.53;2.62;;;;;;;;;;4314997;33;20067;-76
2023/05/10 02:09:44;;;;;;;3.60;2.55;;;;;;;;;;4315024;33;20049;-74
2023/05/10 02:12:12;;;;;;;6.93;2.85;;;;;;;;;;4312967;33;20397;-81
2023/05/10 02:14:39;;;;;;;8.63;2.50;;;;;;;;;;4314686;33;20045;-73
2023/05/10 02:17:07;;;;;;;9.10;3.78;;;;;;;;;;4315708;33;20401;-73
2023/05/10 02:19:34;;;;;;;4.93;2.97;;;;;;;;;;4315132;33;20041;-73
2023/05/10 02:22:00;;;;;;;6.35;3.05;;;;;;;;;;4315666;33;20040;-73
2023/05/10 02:24:28;;;;;;;4.65;2.25;;;;;;;;;;4314686;33;20053;-75
2023/05/10 02:26:54;;;;;;;10.90;2.60;;;;;;;;;;4315507;33;20207;-73
2023/05/10 02:29:23;;;;;;;2.75;2.22;;;;;;;;;;4315888;33;20041;-73
2023/05/10 02:31:51;;;;;;;7.30;2.37;;;;;;;;;;4314184;33;20053;-73
2023/05/10 02:34:17;;;;;;;4.00;2.90;;;;;;;;;;4314305;33;20473;-73
2023/05/10 02:36:45;;;;;;;5.82;3.60;;;;;;;;;;4297034;33;20045;-73
2023/05/10 02:39:19;;;;;;;3.85;2.35;;;;;;;;;;4296596;33;20049;-73
2023/05/10 02:41:46;;;;;;;5.20;2.92;;;;;;;;;;4296611;33;20054;-73
2023/05/10 02:44:15;;;;;;;3.03;2.45;;;;;;;;;;4295302;33;20180;-74
2023/05/10 02:46:41;;;;;;;8.10;2.70;;;;;;;;;;4294163;33;20337;-72
2023/05/10 02:49:07;;;;;;;7.90;2.95;;;;;;;;;;4296591;33;20853;-72
2023/05/10 02:51:36;;;;;;;5.00;2.62;;;;;;;;;;4296132;33;20071;-74
2023/05/10 02:54:06;;;;;;;7.55;2.97;;;;;;;;;;4294486;33;20040;-73
2023/05/10 02:56:34;;;;;;;11.25;3.15;;;;;;;;;;4292968;33;20536;-72
2023/05/10 02:59:00;;;;;;;9.27;4.03;;;;;;;;;;4295046;33;20049;-74
2023/05/10 03:01:26;;;;;;;4.18;2.17;;;;;;;;;;4295346;33;20037;-73
2023/05/10 03:03:53;;;;;;;7.30;3.55;;;;;;;;;;4267401;33;20045;-73
2023/05/10 03:06:19;;;;;;;5.78;2.37;;;;;;;;;;4251033;33;20500;-81
2023/05/10 03:08:45;;;;;;;5.57;3.10;;;;;;;;;;4252540;33;20046;-73
2023/05/10 03:11:20;;;;;;;7.55;2.83;;;;;;;;;;4253440;33;20102;-73
2023/05/10 03:13:50;;;;;;;8.55;2.70;;;;;;;;;;4253318;33;20058;-73
2023/05/10 03:16:21;;;;;;;5.55;2.62;;;;;;;;;;4253022;33;20075;-82
2023/05/10 03:18:50;;;;;;;7.85;3.12;;;;;;;;;;4253157;33;20388;-78
2023/05/10 03:21:17;;;;;;;5.75;3.17;;;;;;;;;;4251192;33;20046;-74
2023/05/10 03:23:50;;;;;;;7.62;3.15;;;;;;;;;;4231233;33;20051;-74
2023/05/10 03:26:23;;;;;;;4.53;2.70;;;;;;;;;;4222800;34;20050;-81
2023/05/10 03:28:50;;;;;;;7.70;2.25;;;;;;;;;;4224886;34;20076;-73
2023/05/10 03:31:17;;;;;;;3.90;2.65;;;;;;;;;;4223778;34;20042;-75
2023/05/10 03:33:50;;;;;;;5.82;2.28;;;;;;;;;;4214447;34;20073;-74
2023/05/10 03:36:17;;;;;;;4.55;2.70;;;;;;;;;;4239371;33;20046;-74
2023/05/10 03:38:43;;;;;;;2.25;2.05;;;;;;;;;;4238582;33;20050;-74
2023/05/10 03:41:09;;;;;;;2.83;2.33;;;;;;;;;;4232305;33;20066;-74
2023/05/10 03:43:36;;;;;;;4.90;1.87;;;;;;;;;;4230466;33;20585;-73
2023/05/10 03:46:05;;;;;;;7.32;2.55;;;;;;;;;;4252233;33;20067;-84
2023/05/10 03:48:32;;;;;;;10.10;2.30;;;;;;;;;;4252724;33;20068;-73
2023/05/10 03:50:58;;;;;;;7.07;3.15;;;;;;;;;;4253365;33;20050;-74
2023/05/10 03:53:24;;;;;;;4.53;2.53;;;;;;;;;;4251981;33;20063;-73
2023/05/10 03:55:50;;;;;;;5.85;2.67;;;;;;;;;;4251649;33;20056;-74
2023/05/10 03:58:18;;;;;;;9.85;2.60;;;;;;;;;;4274908;33;20061;-81
2023/05/10 04:00:45;;;;;;;2.17;1.67;;;;;;;;;;4306966;33;20644;-74
2023/05/10 04:03:12;;;;;;;4.22;2.17;;;;;;;;;;4304918;33;20044;-73
2023/05/10 04:05:38;;;;;;;5.22;2.78;;;;;;;;;;4308762;33;20840;-73
2023/05/10 04:08:05;;;;;;;4.30;2.30;;;;;;;;;;4309689;33;20087;-85
2023/05/10 04:10:31;;;;;;;5.20;2.22;;;;;;;;;;4303322;33;20052;-74
2023/05/10 04:12:57;;;;;;;5.03;2.60;;;;;;;;;;4307601;33;21067;-73
2023/05/10 04:15:23;;;;;;;3.83;2.22;;;;;;;;;;4309840;33;20044;-74
2023/05/10 04:17:50;;;;;;;4.07;2.53;;;;;;;;;;4311392;33;20118;-74
2023/05/10 04:20:16;;;;;;;6.78;2.65;;;;;;;;;;4310237;33;20054;-74
2023/05/10 04:22:42;;;;;;;3.55;2.25;;;;;;;;;;4309962;33;20052;-76
2023/05/10 04:25:09;;;;;;;3.78;2.45;;;;;;;;;;4306904;33;20060;-76
2023/05/10 04:27:35;;;;;;;4.53;2.37;;;;;;;;;;4298802;33;20061;-76
2023/05/10 04:30:01;;;;;;;6.32;2.60;;;;;;;;;;4297051;33;20118;-73
2023/05/10 04:32:28;;;;;;;6.97;2.28;;;;;;;;;;4297277;33;20057;-74
2023/05/10 04:34:54;;;;;;;3.15;2.45;;;;;;;;;;4295064;33;20482;-74
2023/05/10 04:37:21;;;;;;;8.05;3.45;;;;;;;;;;4315212;33;20096;-73
2023/05/10 04:39:47;;;;;;;7.60;3.03;;;;;;;;;;4326500;33;20045;-73
2023/05/10 04:42:14;;;;;;;7.25;2.53;;;;;;;;;;4309989;33;20056;-75
2023/05/10 04:44:40;;;;;;;5.03;2.10;;;;;;;;;;4309956;33;20049;-84
2023/05/10 04:47:07;;;;;;;3.78;2.70;;;;;;;;;;4309024;33;20065;-74
2023/05/10 04:49:33;;;;;;;7.35;2.62;;;;;;;;;;4304741;33;20045;-73
2023/05/10 04:52:05;;;;;;;6.10;2.37;;;;;;;;;;4295613;33;20053;-75
2023/05/10 04:54:31;;;;;;;9.88;2.37;;;;;;;;;;4294942;33;20056;-81
2023/05/10 04:56:57;;;;;;;4.87;2.28;;;;;;;;;;4295590;33;20070;-75
2023/05/10 04:59:23;;;;;;;5.28;2.30;;;;;;;;;;4295584;33;20046;-74
2023/05/10 05:01:50;;;;;;;11.57;2.22;;;;;;;;;;4295192;33;20428;-76
2023/05/10 05:04:16;;;;;;;8.75;2.80;;;;;;;;;;4295531;33;20104;-75
2023/05/10 05:06:42;;;;;;;4.35;2.78;;;;;;;;;;4294586;33;20140;-80
2023/05/10 05:09:09;;;;;;;3.22;2.05;;;;;;;;;;4295082;33;20076;-74
2023/05/10 05:11:36;;;;;;;3.70;2.97;;;;;;;;;;4300768;33;20060;-74
2023/05/10 05:14:02;;;;;;;7.45;2.50;;;;;;;;;;4310572;33;20085;-74
2023/05/10 05:16:30;;;;;;;3.53;1.95;;;;;;;;;;4305137;33;20067;-74
2023/05/10 05:18:56;;;;;;;9.50;3.37;;;;;;;;;;4308308;33;20042;-82
2023/05/10 05:21:22;;;;;;;11.70;1.80;;;;;;;;;;4309569;33;20066;-76
2023/05/10 05:23:48;;;;;;;3.92;2.45;;;;;;;;;;4310824;33;20110;-74
2023/05/10 05:26:14;;;;;;;2.83;2.00;;;;;;;;;;4309391;33;20082;-75
2023/05/10 05:28:40;;;;;;;2.95;1.83;;;;;;;;;;4307021;33;20415;-74
2023/05/10 05:31:07;;;;;;;3.15;2.53;;;;;;;;;;4291492;33;20080;-75
2023/05/10 05:33:33;;;;;;;3.60;2.40;;;;;;;;;;4291439;33;20055;-74
2023/05/10 05:36:00;;;;;;;8.23;3.37;;;;;;;;;;4291548;33;20871;-74
2023/05/10 05:38:26;;;;;;;5.28;2.25;;;;;;;;;;4273140;33;20503;-74
2023/05/10 05:40:52;;;;;;;8.93;3.30;;;;;;;;;;4274527;33;20477;-74
2023/05/10 05:43:18;;;;;;;4.97;2.33;;;;;;;;;;4277508;33;20033;-74
2023/05/10 05:45:45;;;;;;;12.60;2.62;;;;;;;;;;4276230;33;20357;-74
2023/05/10 05:48:11;;;;;;;5.62;2.17;;;;;;;;;;4276273;33;20423;-73
2023/05/10 05:50:37;;;;;;;7.65;2.28;;;;;;;;;;4257769;33;20043;-74
2023/05/10 05:53:03;;;;;;;3.50;2.00;;;;;;;;;;4257698;33;20550;-76
2023/05/10 05:55:31;;;;;;;9.25;2.42;;;;;;;;;;4222864;33;20106;-75
2023/05/10 05:57:57;;;;;;;3.37;2.20;;;;;;;;;;4221083;33;20039;-79
2023/05/10 06:00:24;;;;;;;5.50;2.75;;;;;;;;;;4232709;33;20055;-74
2023/05/10 06:02:50;;;;;;;2.75;2.03;;;;;;;;;;4247920;33;20131;-76
2023/05/10 06:05:16;;;;;;;5.95;2.30;;;;;;;;;;4246478;33;20035;-76
2023/05/10 06:07:42;;;;;;;5.43;3.45;;;;;;;;;;4243164;33;20055;-75
2023/05/10 06:10:09;;;;;;;10.82;1.70;;;;;;;;;;4243529;33;20064;-75
2023/05/10 06:12:35;;;;;;;3.40;2.20;;;;;;;;;;4253036;33;20075;-76
2023/05/10 06:15:02;;;;;;;10.32;2.70;;;;;;;;;;4262109;33;20075;-76
2023/05/10 06:17:28;;;;;;;10.98;2.58;;;;;;;;;;4246234;33;20049;-75
2023/05/10 06:19:54;;;;;;;3.87;2.25;;;;;;;;;;4248660;33;20437;-82
2023/05/10 06:22:22;;;;;;;4.40;2.03;;;;;;;;;;4263618;33;20172;-74
2023/05/10 06:24:48;;;;;;;8.13;2.58;;;;;;;;;;4281828;33;20165;-75
2023/05/10 06:27:15;;;;;;;5.62;3.20;;;;;;;;;;4296010;33;20045;-74
2023/05/10 06:29:41;;;;;;;5.90;2.33;;;;;;;;;;4283908;33;20045;-75
2023/05/10 06:32:07;;;;;;;5.28;2.28;;;;;;;;;;4282824;33;20045;-82
2023/05/10 06:34:33;;;;;;;7.30;2.92;;;;;;;;;;4283684;33;20071;-76
2023/05/10 06:36:59;;;;;;;5.45;2.87;;;;;;;;;;4291710;33;20666;-74
2023/05/10 06:39:25;;;;;;;8.30;2.90;;;;;;;;;;4279945;33;20081;-72
2023/05/10 06:41:52;;;;;;;5.78;3.12;;;;;;;;;;4280645;33;20038;-76
2023/05/10 06:44:18;;;;;;;5.10;3.00;;;;;;;;;;4279539;33;20075;-75
2023/05/10 06:46:45;;;;;;;8.75;2.80;;;;;;;;;;4284192;33;20875;-74
2023/05/10 06:49:11;;;;;;;11.48;3.05;;;;;;;;;;4285121;33;20060;-75
2023/05/10 06:51:37;;;;;;;9.55;2.83;;;;;;;;;;4279418;33;20094;-75
2023/05/10 06:54:03;;;;;;;9.80;3.15;;;;;;;;;;4279484;33;20240;-81
2023/05/10 06:56:29;;;;;;;5.20;2.47;;;;;;;;;;4278659;33;20071;-74
2023/05/10 06:58:55;;;;;;;12.02;3.03;;;;;;;;;;4280584;33;20073;-80
2023/05/10 07:01:22;;;;;;;9.63;2.67;;;;;;;;;;4284646;33;20455;-73
2023/05/10 07:03:48;;;;;;;15.40;3.60;;;;;;;;;;4303546;33;20068;-75
2023/05/10 07:06:14;;;;;;;4.90;2.70;;;;;;;;;;4286721;33;20375;-79
2023/05/10 07:08:40;;;;;;;4.20;2.78;;;;;;;;;;4288636;33;20089;-77
2023/05/10 07:11:10;;;;;;;6.00;2.67;;;;;;;;;;4303234;33;20462;-73
2023/05/10 07:13:36;;;;;;;7.20;2.50;;;;;;;;;;4310117;33;20070;-74
2023/05/10 07:16:02;;;;;;;7.62;2.85;;;;;;;;;;4300689;33;20076;-73
2023/05/10 07:18:28;;;;;;;11.35;3.08;;;;;;;;;;4309598;33;20074;-79
2023/05/10 07:20:54;;;;;;;9.50;2.78;;;;;;;;;;4305953;33;20060;-74
2023/05/10 07:23:21;;;;;;;13.23;2.83;;;;;;;;;;4309503;33;20056;-75
2023/05/10 07:25:48;;;;;;;4.05;2.50;;;;;;;;;;4302920;33;20113;-76
2023/05/10 07:28:14;;;;;;;6.22;4.28;;;;;;;;;;4279953;33;20055;-74
2023/05/10 07:30:41;;;;;;;2.67;2.45;;;;;;;;;;4277173;33;20126;-76
2023/05/10 07:33:08;;;;;;;9.20;2.80;;;;;;;;;;4287448;33;20070;-75
2023/05/10 07:35:35;;;;;;;5.30;2.92;;;;;;;;;;4279943;33;20049;-75
2023/05/10 07:38:03;;;;;;;3.28;2.55;;;;;;;;;;4279691;33;20045;-75
2023/05/10 07:40:29;;;;;;;2.67;2.35;;;;;;;;;;4280515;33;20063;-74
2023/05/10 07:42:55;;;;;;;4.53;2.62;;;;;;;;;;4278683;33;20070;-83
2023/05/10 07:45:22;;;;;;;7.85;2.30;;;;;;;;;;4282440;33;20057;-74
2023/05/10 07:47:49;;;;;;;10.88;2.80;;;;;;;;;;4282888;33;20084;-75
2023/05/10 07:50:15;;;;;;;4.15;2.10;;;;;;;;;;4282138;33;20063;-74
2023/05/10 07:52:41;;;;;;;4.80;3.25;;;;;;;;;;4282823;33;20029;-80
2023/05/10 07:55:08;;;;;;;9.32;2.67;;;;;;;;;;4308749;33;20045;-73
2023/05/10 07:57:34;;;;;;;6.53;2.67;;;;;;;;;;4297339;33;20830;-74
2023/05/10 08:00:01;;;;;;;10.32;3.80;;;;;;;;;;4295370;33;20096;-74
2023/05/10 08:02:26;;;;;;;8.40;2.45;;;;;;;;;;4294443;33;20045;-75
2023/05/10 08:04:53;;;;;;;8.05;2.75;;;;;;;;;;4298569;33;20045;-81
2023/05/10 08:07:19;;;;;;;6.78;2.78;;;;;;;;;;4315871;33;20103;-74
2023/05/10 08:09:45;;;;;;;7.53;2.58;;;;;;;;;;4324986;33;20056;-74
2023/05/10 08:12:11;;;;;;;3.00;2.03;;;;;;;;;;4316747;33;20043;-74
2023/05/10 08:14:38;;;;;;;6.50;2.25;;;;;;;;;;4312850;33;20050;-74
2023/05/10 08:17:03;;;;;;;7.37;2.83;;;;;;;;;;4311403;33;20100;-75
2023/05/10 08:19:30;;;;;;;4.43;2.25;;;;;;;;;;4313058;33;20056;-73
2023/05/10 08:21:56;;;;;;;9.18;4.57;;;;;;;;;;4317647;33;20052;-74
2023/05/10 08:24:23;;;;;;;16.92;4.00;;;;;;;;;;4319490;33;20070;-75
2023/05/10 08:26:49;;;;;;;7.07;2.70;;;;;;;;;;4293449;33;20075;-74
2023/05/10 08:29:15;;;;;;;6.72;3.22;;;;;;;;;;4286510;33;20041;-74
2023/05/10 08:31:41;;;;;;;5.47;2.30;;;;;;;;;;4287488;33;20775;-74
2023/05/10 08:34:08;;;;;;;13.75;2.50;;;;;;;;;;4287557;33;20053;-74
2023/05/10 08:36:34;;;;;;;9.55;3.33;;;;;;;;;;4294140;33;20045;-76
2023/05/10 08:39:00;;;;;;;5.90;1.98;;;;;;;;;;4296555;33;20045;-72
2023/05/10 08:41:26;;;;;;;7.28;2.10;;;;;;;;;;4282810;33;20041;-83
2023/05/10 08:43:53;;;;;;;8.50;2.17;;;;;;;;;;4279976;33;20306;-75
2023/05/10 08:46:21;;;;;;;10.32;2.25;;;;;;;;;;4279828;33;20037;-74
2023/05/10 08:48:48;;;;;;;20.52;2.60;;;;;;;;;;4293286;33;20341;-74
2023/05/10 08:51:15;;;;;;;2.70;1.85;;;;;;;;;;4294929;33;20045;-74
2023/05/10 08:53:41;;;;;;;5.95;2.40;;;;;;;;;;4281918;33;20097;-80
2023/05/10 08:56:07;;;;;;;4.85;2.20;;;;;;;;;;4281852;33;20399;-74
2023/05/10 08:58:33;;;;;;;2.70;2.00;;;;;;;;;;4281639;33;20070;-77
2023/05/10 09:01:00;;;;;;;10.68;2.28;;;;;;;;;;4281829;33;20045;-75
2023/05/10 09:03:27;;;;;;;5.82;2.22;;;;;;;;;;4280274;33;20042;-74
2023/05/10 09:05:55;;;;;;;2.80;2.22;;;;;;;;;;4280677;33;20152;-76
2023/05/10 09:08:25;;;;;;;3.22;2.20;;;;;;;;;;4282544;33;20053;-75
2023/05/10 09:10:51;;;;;;;16.67;2.35;;;;;;;;;;4282394;33;20049;-76
2023/05/10 09:13:18;;;;;;;6.18;2.35;;;;;;;;;;4260878;33;20058;-75
2023/05/10 09:15:44;;;;;;;2.33;1.95;;;;;;;;;;4252274;33;20077;-74
2023/05/10 09:18:12;;;;;;;9.85;2.83;;;;;;;;;;4249858;33;20070;-74
2023/05/10 09:20:38;;;;;;;6.20;2.05;;;;;;;;;;4276390;33;20446;-74
2023/05/10 09:23:05;;;;;;;7.53;1.87;;;;;;;;;;4267894;33;20042;-74
2023/05/10 09:25:35;;;;;;;3.33;1.95;;;;;;;;;;4252010;33;20042;-74
2023/05/10 09:28:01;;;;;;;5.40;2.05;;;;;;;;;;4250482;33;20038;-74
2023/05/10 09:30:29;;;;;;;9.90;2.22;;;;;;;;;;4251289;33;20117;-76
2023/05/10 09:32:56;;;;;;;17.40;2.70;;;;;;;;;;4251298;33;20550;-79
2023/05/10 09:35:26;;;;;;;6.57;2.35;;;;;;;;;;4237231;33;20058;-74
2023/05/10 09:37:53;;;;;;;17.52;2.45;;;;;;;;;;4274756;33;20049;-79
2023/05/10 09:40:21;;;;;;;1.90;1.70;;;;;;;;;;4283619;33;20057;-76
2023/05/10 09:42:58;;;;;;;10.93;1.70;;;;;;;;;;4282098;33;20081;-76
2023/05/10 09:45:25;;;;;;;2.08;1.87;;;;;;;;;;4275003;33;20042;-75
2023/05/10 09:47:51;;;;;;;11.02;2.47;;;;;;;;;;4282493;33;20037;-78
2023/05/10 09:50:18;;;;;;;7.72;1.73;;;;;;;;;;4283462;33;20079;-76
2023/05/10 09:52:57;;;;;;;3.03;2.08;;;;;;;;;;4283363;33;20421;-75
2023/05/10 09:55:24;;;;;;;2.53;2.05;;;;;;;;;;4282556;33;20482;-75
2023/05/10 09:58:00;;;;;;;3.50;2.25;;;;;;;;;;4294848;33;20601;-77
2023/05/10 10:00:27;;;;;;;4.57;2.00;;;;;;;;;;4294405;33;20048;-76
2023/05/10 10:02:57;;;;;;;3.70;2.40;;;;;;;;;;4274580;33;20050;-74
2023/05/10 10:05:29;;;;;;;5.35;2.30;;;;;;;;;;4281079;33;20063;-76
2023/05/10 10:07:59;;;;;;;6.82;2.20;;;;;;;;;;4282552;33;20379;-74
2023/05/10 10:10:25;;;;;;;9.07;2.25;;;;;;;;;;4284543;33;20128;-75
2023/05/10 10:12:52;;;;;;;5.85;2.15;;;;;;;;;;4281024;33;20042;-74
2023/05/10 10:15:18;;;;;;;8.82;3.22;;;;;;;;;;4292437;33;20837;-74
2023/05/10 10:17:45;;;;;;;10.18;2.33;;;;;;;;;;4282213;33;20053;-72
2023/05/10 10:20:11;;;;;;;14.55;2.00;;;;;;;;;;4289716;33;20044;-74
2023/05/10 10:22:37;;;;;;;5.32;1.70;;;;;;;;;;4269901;33;20081;-75
2023/05/10 10:25:07;;;;;;;4.28;2.03;;;;;;;;;;4267311;33;20857;-73
2023/05/10 10:27:34;;;;;;;2.78;1.90;;;;;;;;;;4224243;33;20050;-85
2023/05/10 10:30:18;;;;;;;2.25;1.58;;;;;;;;;;4224802;33;20089;-74
2023/05/10 10:33:03;;;;;;;2.30;1.60;;;;;;;;;;4225361;33;20055;-74
2023/05/10 10:35:30;;;;;;;2.30;1.87;;;;;;;;;;4224261;33;20072;-75
2023/05/10 10:38:03;;;;;;;4.45;2.10;;;;;;;;;;4225419;33;20516;-73
2023/05/10 10:40:30;;;;;;;5.00;1.77;;;;;;;;;;4234190;33;20042;-74
2023/05/10 10:42:57;;;;;;;2.20;1.80;;;;;;;;;;4241503;33;20097;-76
2023/05/10 10:45:24;;;;;;;8.55;2.00;;;;;;;;;;4241287;33;20064;-73
2023/05/10 10:48:09;;;;;;;3.33;1.90;;;;;;;;;;4209889;34;20067;-74
2023/05/10 10:50:43;;;;;;;8.32;4.47;;;;;;;;;;4209708;34;20461;-75
2023/05/10 10:53:11;;;;;;;2.37;2.12;;;;;;;;;;4218505;33;20074;-75
2023/05/10 10:55:45;;;;;;;14.60;4.37;;;;;;;;;;4232069;33;20039;-78
2023/05/10 10:58:28;;;;;;;8.00;2.12;;;;;;;;;;4251998;33;20059;-74
2023/05/10 11:01:09;;;;;;;13.70;2.97;;;;;;;;;;4429356;28;20223;-77
2023/05/10 11:03:36;;;;;;;3.30;1.73;;;;;;;;;;4221889;33;20074;-74
2023/05/10 11:06:02;;;;;;;2.20;1.90;;;;;;;;;;4225128;33;20508;-73
2023/05/10 11:08:29;;;;;;;8.88;2.70;;;;;;;;;;4232117;33;20039;-73
2023/05/10 11:10:58;;;;;;;2.83;2.00;;;;;;;;;;4231777;33;20060;-75
2023/05/10 11:13:27;;;;;;;5.45;2.20;;;;;;;;;;4232445;33;20541;-75
2023/05/10 11:15:53;;;;;;;5.22;2.00;;;;;;;;;;4210108;34;20483;-73
2023/05/10 11:18:22;;;;;;;3.28;2.50;;;;;;;;;;4213015;34;20066;-73
2023/05/10 11:20:52;;;;;;;2.45;2.12;;;;;;;;;;4225169;33;20031;-73
2023/05/10 11:23:19;;;;;;;8.20;2.67;;;;;;;;;;4223191;33;20065;-73
2023/05/10 11:25:53;;;;;;;4.25;2.08;;;;;;;;;;4198189;34;20052;-76
2023/05/10 11:28:20;;;;;;;2.47;1.52;;;;;;;;;;4197434;34;20067;-74
2023/05/10 11:30:46;;;;;;;3.87;2.22;;;;;;;;;;4201032;34;20039;-75
2023/05/10 11:33:16;;;;;;;4.55;1.98;;;;;;;;;;4212267;34;20085;-74
2023/05/10 11:35:42;;;;;;;12.82;3.03;;;;;;;;;;4209406;34;20043;-76
2023/05/10 11:38:09;;;;;;;15.85;2.05;;;;;;;;;;4212316;34;20073;-73
2023/05/10 11:40:36;;;;;;;5.18;1.92;;;;;;;;;;4210581;34;20043;-74
2023/05/10 11:43:02;;;;;;;3.00;1.85;;;;;;;;;;4208176;34;20051;-78
2023/05/10 11:45:31;;;;;;;1.85;1.75;;;;;;;;;;4222881;33;20106;-75
2023/05/10 11:47:58;;;;;;;2.70;1.98;;;;;;;;;;4231872;33;20043;-74
2023/05/10 11:50:25;;;;;;;2.85;1.75;;;;;;;;;;4229400;33;20553;-73
2023/05/10 11:52:52;;;;;;;10.18;2.62;;;;;;;;;;4230422;33;20197;-74
2023/05/10 11:55:19;;;;;;;5.65;2.17;;;;;;;;;;4236767;33;20404;-73
2023/05/10 11:57:46;;;;;;;4.93;2.10;;;;;;;;;;4252729;33;20072;-77
2023/05/10 12:00:13;;;;;;;6.85;2.30;;;;;;;;;;4254463;33;20063;-73
2023/05/10 12:02:41;;;;;;;5.82;2.50;;;;;;;;;;4261396;33;20114;-77
2023/05/10 12:05:08;;;;;;;12.65;2.33;;;;;;;;;;4266056;33;20050;-82
2023/05/10 12:07:34;;;;;;;4.72;2.58;;;;;;;;;;4266656;33;20075;-73
2023/05/10 12:10:14;;;;;;;2.62;2.17;;;;;;;;;;4266108;33;20101;-75
2023/05/10 12:12:43;;;;;;;13.50;3.62;;;;;;;;;;4267426;33;20030;-73
2023/05/10 12:15:11;;;;;;;7.85;2.12;;;;;;;;;;4264723;33;20067;-78
2023/05/10 12:17:37;;;;;;;3.08;1.65;;;;;;;;;;4260184;33;20895;-73
2023/05/10 12:20:16;;;;;;;2.75;1.95;;;;;;;;;;4260141;33;20041;-74
2023/05/10 12:22:52;;;;;;;3.70;1.90;;;;;;;;;;4263491;33;20049;-75
2023/05/10 12:25:20;;;;;;;3.75;2.10;;;;;;;;;;4260709;33;20050;-73
2023/05/10 12:27:56;;;;;;;6.37;2.33;;;;;;;;;;4259299;33;20050;-74
2023/05/10 12:30:23;;;;;;;4.60;1.80;;;;;;;;;;4264913;33;20041;-73
2023/05/10 12:32:50;;;;;;;5.32;3.58;;;;;;;;;;4265936;33;20041;-72
2023/05/10 12:35:16;;;;;;;4.85;2.25;;;;;;;;;;4259855;33;20049;-73
2023/05/10 12:37:43;;;;;;;3.42;2.03;;;;;;;;;;4262744;33;20215;-73
2023/05/10 12:40:10;;;;;;;3.60;2.03;;;;;;;;;;4261418;33;20045;-72
2023/05/10 12:42:38;;;;;;;2.67;1.85;;;;;;;;;;4260221;33;20045;-73
2023/05/10 12:45:08;;;;;;;6.40;1.92;;;;;;;;;;4262862;33;20058;-80
2023/05/10 12:47:34;;;;;;;4.75;2.28;;;;;;;;;;4265669;33;20145;-75
2023/05/10 12:50:01;;;;;;;6.03;2.22;;;;;;;;;;4266119;33;20451;-74
2023/05/10 12:52:27;;;;;;;4.82;1.50;;;;;;;;;;4266153;33;20042;-73
2023/05/10 12:54:54;;;;;;;3.40;1.80;;;;;;;;;;4264916;33;20435;-73
2023/05/10 12:57:20;;;;;;;9.98;1.83;;;;;;;;;;4263212;33;20060;-76
2023/05/10 12:59:47;;;;;;;2.92;2.03;;;;;;;;;;4247600;33;20068;-72
2023/05/10 13:02:14;;;;;;;2.05;1.90;;;;;;;;;;4246078;33;20054;-75
2023/05/10 13:04:47;;;;;;;2.42;1.75;;;;;;;;;;4220225;33;20183;-72
2023/05/10 13:07:13;;;;;;;7.47;1.98;;;;;;;;;;4222221;33;20447;-76
2023/05/10 13:09:40;;;;;;;4.80;2.35;;;;;;;;;;4222538;33;20047;-76
2023/05/10 13:12:06;;;;;;;4.55;1.70;;;;;;;;;;4230331;33;20050;-74
2023/05/10 13:14:32;;;;;;;3.15;1.75;;;;;;;;;;4229290;33;20396;-73
2023/05/10 13:16:58;;;;;;;2.22;1.98;;;;;;;;;;4232474;33;20038;-73
2023/05/10 13:19:24;;;;;;;2.22;1.98;;;;;;;;;;4230460;33;20082;-75
2023/05/10 13:21:50;;;;;;;5.35;2.80;;;;;;;;;;4245647;33;20101;-73
2023/05/10 13:24:17;;;;;;;2.53;2.00;;;;;;;;;;4251420;33;20056;-74
2023/05/10 13:26:43;;;;;;;7.57;1.60;;;;;;;;;;4248522;33;20461;-74
2023/05/10 13:29:09;;;;;;;1.87;1.73;;;;;;;;;;4207625;34;20056;-75
2023/05/10 13:31:35;;;;;;;2.22;2.03;;;;;;;;;;4216027;33;20058;-86
2023/05/10 13:34:02;;;;;;;14.65;2.90;;;;;;;;;;4215329;34;20063;-74
2023/05/10 13:36:28;;;;;;;3.53;2.45;;;;;;;;;;4219976;34;20042;-73
2023/05/10 13:39:02;;;;;;;3.22;2.15;;;;;;;;;;4223181;34;20038;-73
2023/05/10 13:41:28;;;;;;;1.75;1.60;;;;;;;;;;4223723;33;20043;-73
2023/05/10 13:43:55;;;;;;;6.62;2.50;;;;;;;;;;4220178;33;20397;-74
2023/05/10 13:46:21;;;;;;;3.92;1.52;;;;;;;;;;4220748;33;20054;-77
2023/05/10 13:48:47;;;;;;;5.18;2.42;;;;;;;;;;4218138;33;20084;-74
2023/05/10 13:51:14;;;;;;;6.28;1.92;;;;;;;;;;4219238;33;20068;-72
2023/05/10 13:53:41;;;;;;;2.87;2.17;;;;;;;;;;4210283;33;20492;-75
2023/05/10 13:56:07;;;;;;;7.85;1.95;;;;;;;;;;4209409;34;20081;-74
2023/05/10 13:58:35;;;;;;;9.30;1.67;;;;;;;;;;4207026;34;21075;-73
2023/05/10 14:01:01;;;;;;;8.55;2.15;;;;;;;;;;4219876;33;20082;-73
2023/05/10 14:03:28;;;;;;;14.13;1.90;;;;;;;;;;4219204;33;20076;-76
2023/05/10 14:05:54;;;;;;;5.65;2.17;;;;;;;;;;4219784;33;20073;-76
2023/05/10 14:08:21;;;;;;;2.42;1.73;;;;;;;;;;4221087;33;20089;-78
2023/05/10 14:10:48;;;;;;;2.97;1.87;;;;;;;;;;4224884;33;20058;-74
2023/05/10 14:13:15;;;;;;;3.08;1.52;;;;;;;;;;4228936;33;20063;-74
2023/05/10 14:15:41;;;;;;;5.78;2.50;;;;;;;;;;4266814;33;20090;-74
2023/05/10 14:18:07;;;;;;;7.65;2.28;;;;;;;;;;4264090;33;20128;-77
2023/05/10 14:20:33;;;;;;;4.05;2.20;;;;;;;;;;4266714;33;20081;-72
2023/05/10 14:23:00;;;;;;;6.12;1.90;;;;;;;;;;4250940;33;20075;-73
2023/05/10 14:25:26;;;;;;;4.95;2.10;;;;;;;;;;4264370;33;20053;-74
2023/05/10 14:27:54;;;;;;;9.05;1.92;;;;;;;;;;4266830;33;20049;-74
2023/05/10 14:30:20;;;;;;;6.93;1.65;;;;;;;;;;4264669;33;20072;-78
2023/05/10 14:32:46;;;;;;;9.02;2.03;;;;;;;;;;4269577;33;20415;-72
2023/05/10 14:35:12;;;;;;;2.62;1.42;;;;;;;;;;4268198;33;20053;-73
2023/05/10 14:37:39;;;;;;;2.62;2.42;;;;;;;;;;4268321;33;20809;-74
2023/05/10 14:40:06;;;;;;;1.85;1.62;;;;;;;;;;4269350;33;20123;-74
2023/05/10 14:42:32;;;;;;;11.27;1.58;;;;;;;;;;4267109;33;20068;-73
2023/05/10 14:44:58;;;;;;;1.75;1.50;;;;;;;;;;4269220;33;20248;-73
2023/05/10 14:47:25;;;;;;;7.55;2.45;;;;;;;;;;4268466;33;20087;-74
2023/05/10 14:49:51;;;;;;;9.68;1.90;;;;;;;;;;4271234;33;20115;-74
2023/05/10 14:52:17;;;;;;;4.25;1.73;;;;;;;;;;4267230;33;20105;-77
2023/05/10 14:54:43;;;;;;;4.50;2.00;;;;;;;;;;4268554;33;20068;-73
2023/05/10 14:57:10;;;;;;;2.10;1.85;;;;;;;;;;4269181;33;20442;-74
2023/05/10 14:59:35;;;;;;;9.90;2.37;;;;;;;;;;4269025;33;20041;-73
2023/05/10 15:02:03;;;;;;;4.80;1.73;;;;;;;;;;4268936;33;20827;-74
2023/05/10 15:04:28;;;;;;;1.95;1.30;;;;;;;;;;4267452;33;20167;-74
2023/05/10 15:06:58;;;;;;;4.43;1.90;;;;;;;;;;4268721;33;20071;-74
2023/05/10 15:09:25;;;;;;;1.83;1.73;;;;;;;;;;4268959;33;20041;-73
2023/05/10 15:11:52;;;;;;;11.45;2.08;;;;;;;;;;4269254;33;20076;-73
2023/05/10 15:14:18;;;;;;;6.97;2.33;;;;;;;;;;4267636;33;20050;-76
2023/05/10 15:16:44;;;;;;;7.10;1.77;;;;;;;;;;4267135;33;20065;-74
2023/05/10 15:19:10;;;;;;;3.00;1.85;;;;;;;;;;4266529;33;20082;-73
2023/05/10 15:21:38;;;;;;;2.90;1.77;;;;;;;;;;4266800;33;20054;-74
2023/05/10 15:24:05;;;;;;;6.57;1.80;;;;;;;;;;4264877;33;20061;-73
2023/05/10 15:26:32;;;;;;;6.70;1.60;;;;;;;;;;4266137;33;20673;-75
2023/05/10 15:29:04;;;;;;;4.10;1.98;;;;;;;;;;4264583;33;20045;-75
2023/05/10 15:31:31;;;;;;;5.60;1.30;;;;;;;;;;4265588;33;20796;-73
2023/05/10 15:33:58;;;;;;;3.95;1.83;;;;;;;;;;4278743;33;20072;-75
2023/05/10 15:36:24;;;;;;;2.00;1.62;;;;;;;;;;4256355;33;20463;-74
2023/05/10 15:38:50;;;;;;;2.75;1.65;;;;;;;;;;4257482;33;20504;-76
2023/05/10 15:41:16;;;;;;;6.95;1.75;;;;;;;;;;4253601;33;20182;-73
2023/05/10 15:43:42;;;;;;;6.72;1.98;;;;;;;;;;4254080;33;20034;-73
2023/05/10 15:46:09;;;;;;;2.00;1.73;;;;;;;;;;4250627;33;20437;-72
2023/05/10 15:48:35;;;;;;;7.90;1.90;;;;;;;;;;4262930;33;20073;-74
2023/05/10 15:51:01;;;;;;;5.07;3.17;;;;;;;;;;4250472;33;20125;-74
2023/05/10 15:53:27;;;;;;;7.60;2.12;;;;;;;;;;4252000;33;20697;-73
2023/05/10 15:55:54;;;;;;;6.30;1.48;;;;;;;;;;4252059;33;20077;-74
2023/05/10 15:58:19;;;;;;;5.18;1.73;;;;;;;;;;4253091;33;20105;-75
2023/05/10 16:00:46;;;;;;;2.22;1.90;;;;;;;;;;4263696;33;20072;-75
2023/05/10 16:03:12;;;;;;;3.28;1.87;;;;;;;;;;4258735;33;20453;-76
2023/05/10 16:05:39;;;;;;;4.00;2.10;;;;;;;;;;4239450;33;20050;-77
2023/05/10 16:08:05;;;;;;;13.57;2.20;;;;;;;;;;4224477;33;20424;-74
2023/05/10 16:10:32;;;;;;;2.60;1.67;;;;;;;;;;4244061;33;20101;-74
2023/05/10 16:12:59;;;;;;;4.70;2.03;;;;;;;;;;4248487;33;20034;-73
2023/05/10 16:15:26;;;;;;;9.68;1.80;;;;;;;;;;4247293;33;20083;-74
2023/05/10 16:17:52;;;;;;;6.10;1.90;;;;;;;;;;4241646;33;20131;-74
2023/05/10 16:20:18;;;;;;;2.95;1.83;;;;;;;;;;4259632;33;20239;-73
2023/05/10 16:22:44;;;;;;;8.80;1.95;;;;;;;;;;4258248;33;20508;-74
2023/05/10 16:25:11;;;;;;;6.40;2.05;;;;;;;;;;4250921;33;20103;-75
2023/05/10 16:27:37;;;;;;;2.35;1.75;;;;;;;;;;4233212;33;20068;-76
2023/05/10 16:30:04;;;;;;;2.35;2.03;;;;;;;;;;4213353;34;20055;-73
2023/05/10 16:32:30;;;;;;;3.62;1.90;;;;;;;;;;4220232;33;20043;-74
2023/05/10 16:34:57;;;;;;;7.25;1.73;;;;;;;;;;4214192;33;20124;-73
2023/05/10 16:37:23;;;;;;;3.62;2.42;;;;;;;;;;4210690;33;20061;-74
2023/05/10 16:39:49;;;;;;;8.38;1.83;;;;;;;;;;4180918;34;20068;-76
2023/05/10 16:42:16;;;;;;;4.82;1.40;;;;;;;;;;4180557;34;20048;-74